VKG7AJ LGSK-ESMS
Flight info
| Callsign | VKG7AJ |
|---|---|
| Flight time | 2h 43m |
| Altitude | 34000 |
| Route | TSL UL617 MAKED DCT RAXAD DCT PARAK DCT PATAK/N0448F360 DCT BILNA/N0277F080 L617 REGLI/N0450F360 DCT ROE |
| Aircraft | A321/M-SDE3FGHIRWY/LB1 |
Departure
| Time | 2026-05-08 17:49 |
|---|---|
| Airport | Skiathos Island National Airport (LGSK) |
Arrival
| Time | 2026-05-08 20:33 |
|---|---|
| Airport | Malmö Sturup Airport (ESMS) |
| Time | Latitude | Longitude | Altitude | Speed | Heading |
|---|---|---|---|---|---|
| 2026-05-08 17:25 | 39.17908 | 23.50243 | 39 ft | 0 kts | 289° |
| 2026-05-08 17:34 | 39.17908 | 23.50244 | 39 ft | 0 kts | 289° |
| 2026-05-08 17:42 | 39.17902 | 23.50267 | 39 ft | 4 kts | 289° |
| 2026-05-08 17:43 | 39.17894 | 23.50295 | 38 ft | 4 kts | 283° |
| 2026-05-08 17:43 | 39.17895 | 23.50323 | 36 ft | 4 kts | 223° |
| 2026-05-08 17:43 | 39.17916 | 23.50338 | 38 ft | 2 kts | 199° |
| 2026-05-08 17:43 | 39.17917 | 23.50338 | 38 ft | 2 kts | 199° |
| 2026-05-08 17:46 | 39.17894 | 23.50328 | 36 ft | 7 kts | 199° |
| 2026-05-08 17:46 | 39.17851 | 23.50310 | 39 ft | 7 kts | 198° |
| 2026-05-08 17:46 | 39.17809 | 23.50292 | 39 ft | 6 kts | 199° |
| 2026-05-08 17:46 | 39.17760 | 23.50270 | 39 ft | 12 kts | 199° |
| 2026-05-08 17:47 | 39.17686 | 23.50247 | 39 ft | 10 kts | 200° |
| 2026-05-08 17:47 | 39.17619 | 23.50217 | 39 ft | 11 kts | 195° |
| 2026-05-08 17:47 | 39.17531 | 23.50277 | 40 ft | 18 kts | 170° |
| 2026-05-08 17:47 | 39.17450 | 23.50250 | 38 ft | 18 kts | 199° |
| 2026-05-08 17:48 | 39.17248 | 23.50161 | 27 ft | 31 kts | 199° |
| 2026-05-08 17:48 | 39.17097 | 23.50095 | 19 ft | 15 kts | 198° |
| 2026-05-08 17:48 | 39.17017 | 23.50069 | 10 ft | 11 kts | 258° |
| 2026-05-08 17:48 | 39.17030 | 23.50050 | 11 ft | 1 kts | 19° |
| 2026-05-08 17:49 | 39.17139 | 23.50113 | 21 ft | 54 kts | 20° |
| 2026-05-08 17:49 | 39.17738 | 23.50379 | 40 ft | 128 kts | 19° |
| 2026-05-08 17:49 | 39.18687 | 23.50804 | 522 ft | 146 kts | 17° |
| 2026-05-08 17:49 | 39.19647 | 23.51227 | 1303 ft | 148 kts | 20° |
| 2026-05-08 17:50 | 39.20653 | 23.51658 | 1872 ft | 159 kts | 19° |
| 2026-05-08 17:50 | 39.21769 | 23.52159 | 2002 ft | 179 kts | 21° |
| 2026-05-08 17:50 | 39.22983 | 23.52726 | 2197 ft | 194 kts | 20° |
| 2026-05-08 17:50 | 39.24327 | 23.53329 | 2334 ft | 212 kts | 20° |
| 2026-05-08 17:51 | 39.25756 | 23.53961 | 2714 ft | 219 kts | 19° |
| 2026-05-08 17:51 | 39.27192 | 23.54680 | 3124 ft | 224 kts | 32° |
| 2026-05-08 17:51 | 39.28155 | 23.56181 | 3484 ft | 224 kts | 76° |
| 2026-05-08 17:51 | 39.28181 | 23.58139 | 3875 ft | 219 kts | 107° |
| 2026-05-08 17:52 | 39.27723 | 23.60015 | 4294 ft | 220 kts | 116° |
| 2026-05-08 17:52 | 39.27140 | 23.61857 | 4712 ft | 223 kts | 119° |
| 2026-05-08 17:52 | 39.24850 | 23.64149 | 5472 ft | 211 kts | 176° |
| 2026-05-08 17:53 | 39.23420 | 23.64001 | 5853 ft | 205 kts | 203° |
| 2026-05-08 17:53 | 39.22067 | 23.63393 | 6282 ft | 207 kts | 205° |
| 2026-05-08 17:53 | 39.20702 | 23.62780 | 6697 ft | 209 kts | 205° |
| 2026-05-08 17:53 | 39.19374 | 23.62096 | 7080 ft | 206 kts | 217° |
| 2026-05-08 17:54 | 39.18366 | 23.60796 | 7285 ft | 211 kts | 244° |
| 2026-05-08 17:54 | 39.18015 | 23.58907 | 7420 ft | 229 kts | 273° |
| 2026-05-08 17:54 | 39.18609 | 23.56918 | 7647 ft | 255 kts | 307° |
| 2026-05-08 17:54 | 39.20114 | 23.55591 | 8197 ft | 271 kts | 329° |
| 2026-05-08 17:55 | 39.21861 | 23.54618 | 8894 ft | 275 kts | 330° |
| 2026-05-08 17:55 | 39.23644 | 23.53707 | 9635 ft | 276 kts | 330° |
| 2026-05-08 17:55 | 39.25440 | 23.52810 | 10273 ft | 280 kts | 330° |
| 2026-05-08 17:55 | 39.27319 | 23.51851 | 10418 ft | 301 kts | 330° |
| 2026-05-08 17:56 | 39.29330 | 23.50807 | 10547 ft | 321 kts | 330° |
| 2026-05-08 17:56 | 39.31437 | 23.49710 | 10963 ft | 330 kts | 331° |
| 2026-05-08 17:56 | 39.33585 | 23.48596 | 11553 ft | 334 kts | 331° |
| 2026-05-08 17:56 | 39.35721 | 23.47486 | 12143 ft | 337 kts | 331° |
| 2026-05-08 17:57 | 39.37911 | 23.46342 | 12770 ft | 341 kts | 331° |
| 2026-05-08 17:57 | 39.40116 | 23.45185 | 13373 ft | 344 kts | 331° |
| 2026-05-08 17:57 | 39.42339 | 23.44012 | 13900 ft | 347 kts | 331° |
| 2026-05-08 17:57 | 39.44579 | 23.42829 | 14029 ft | 348 kts | 331° |
| 2026-05-08 17:58 | 39.46823 | 23.41646 | 14046 ft | 348 kts | 332° |
| 2026-05-08 17:58 | 39.49071 | 23.40461 | 14163 ft | 351 kts | 332° |
| 2026-05-08 17:58 | 39.51338 | 23.39265 | 14757 ft | 353 kts | 332° |
| 2026-05-08 17:58 | 39.53615 | 23.38062 | 15329 ft | 355 kts | 332° |
| 2026-05-08 17:59 | 39.55910 | 23.36848 | 15875 ft | 358 kts | 332° |
| 2026-05-08 17:59 | 39.58197 | 23.35639 | 16383 ft | 361 kts | 333° |
| 2026-05-08 17:59 | 39.60562 | 23.34387 | 16898 ft | 365 kts | 333° |
| 2026-05-08 17:59 | 39.62891 | 23.33152 | 17407 ft | 367 kts | 333° |
| 2026-05-08 18:00 | 39.65264 | 23.31894 | 17925 ft | 370 kts | 334° |
| 2026-05-08 18:00 | 39.70071 | 23.29342 | 18860 ft | 376 kts | 334° |
| 2026-05-08 18:00 | 39.72497 | 23.28054 | 19290 ft | 378 kts | 334° |
| 2026-05-08 18:01 | 39.74941 | 23.26756 | 19721 ft | 381 kts | 334° |
| 2026-05-08 18:01 | 39.77401 | 23.25449 | 20140 ft | 383 kts | 334° |
| 2026-05-08 18:01 | 39.79872 | 23.24132 | 20569 ft | 385 kts | 334° |
| 2026-05-08 18:01 | 39.82362 | 23.22800 | 20963 ft | 389 kts | 335° |
| 2026-05-08 18:02 | 39.84872 | 23.21458 | 21370 ft | 391 kts | 335° |
| 2026-05-08 18:02 | 39.86540 | 23.20567 | 21644 ft | 393 kts | 335° |
| 2026-05-08 18:02 | 39.89908 | 23.18774 | 22193 ft | 396 kts | 335° |
| 2026-05-08 18:02 | 39.92467 | 23.17410 | 22600 ft | 398 kts | 335° |
| 2026-05-08 18:03 | 39.95038 | 23.16037 | 23003 ft | 401 kts | 335° |
| 2026-05-08 18:03 | 39.97624 | 23.14652 | 23397 ft | 403 kts | 335° |
| 2026-05-08 18:03 | 40.00226 | 23.13254 | 23765 ft | 405 kts | 335° |
| 2026-05-08 18:03 | 40.02840 | 23.11849 | 24092 ft | 407 kts | 335° |
| 2026-05-08 18:04 | 40.05469 | 23.10434 | 24399 ft | 410 kts | 335° |
| 2026-05-08 18:04 | 40.08121 | 23.09007 | 24655 ft | 414 kts | 335° |
| 2026-05-08 18:04 | 40.10794 | 23.07567 | 24959 ft | 417 kts | 336° |
| 2026-05-08 18:04 | 40.13447 | 23.06138 | 25274 ft | 419 kts | 336° |
| 2026-05-08 18:05 | 40.16143 | 23.04684 | 25593 ft | 420 kts | 336° |
| 2026-05-08 18:05 | 40.18851 | 23.03221 | 25914 ft | 422 kts | 336° |
| 2026-05-08 18:05 | 40.21573 | 23.01750 | 26224 ft | 424 kts | 336° |
| 2026-05-08 18:05 | 40.24304 | 23.00277 | 26533 ft | 426 kts | 336° |
| 2026-05-08 18:06 | 40.27049 | 22.98792 | 26838 ft | 428 kts | 336° |
| 2026-05-08 18:06 | 40.29806 | 22.97297 | 27113 ft | 430 kts | 336° |
| 2026-05-08 18:06 | 40.32580 | 22.95793 | 27403 ft | 432 kts | 336° |
| 2026-05-08 18:06 | 40.35361 | 22.94285 | 27692 ft | 434 kts | 336° |
| 2026-05-08 18:07 | 40.38123 | 22.92787 | 27977 ft | 436 kts | 336° |
| 2026-05-08 18:07 | 40.40931 | 22.91267 | 28264 ft | 438 kts | 336° |
| 2026-05-08 18:07 | 40.43750 | 22.89737 | 28547 ft | 439 kts | 336° |
| 2026-05-08 18:07 | 40.46579 | 22.88200 | 28809 ft | 441 kts | 336° |
| 2026-05-08 18:08 | 40.49423 | 22.86652 | 29071 ft | 443 kts | 336° |
| 2026-05-08 18:08 | 40.52270 | 22.85096 | 29328 ft | 444 kts | 336° |
| 2026-05-08 18:08 | 40.55129 | 22.83532 | 29581 ft | 446 kts | 336° |
| 2026-05-08 18:08 | 40.58002 | 22.81958 | 29833 ft | 448 kts | 336° |
| 2026-05-08 18:09 | 40.60884 | 22.80379 | 30088 ft | 450 kts | 336° |
| 2026-05-08 18:09 | 40.63774 | 22.78796 | 30319 ft | 451 kts | 336° |
| 2026-05-08 18:09 | 40.66670 | 22.77212 | 30622 ft | 450 kts | 336° |
| 2026-05-08 18:09 | 40.69522 | 22.75650 | 30925 ft | 449 kts | 336° |
| 2026-05-08 18:10 | 40.72404 | 22.74066 | 31248 ft | 449 kts | 335° |
| 2026-05-08 18:10 | 40.75287 | 22.72483 | 31533 ft | 449 kts | 335° |
| 2026-05-08 18:10 | 40.78172 | 22.70900 | 31849 ft | 448 kts | 335° |
| 2026-05-08 18:10 | 40.81047 | 22.69319 | 32038 ft | 448 kts | 335° |
| 2026-05-08 18:11 | 40.86796 | 22.66156 | 32070 ft | 447 kts | 335° |
| 2026-05-08 18:11 | 40.92496 | 22.63008 | 32071 ft | 447 kts | 335° |
| 2026-05-08 18:12 | 40.98239 | 22.59829 | 32069 ft | 448 kts | 335° |
| 2026-05-08 18:12 | 41.03997 | 22.56645 | 32068 ft | 449 kts | 335° |
| 2026-05-08 18:13 | 41.09753 | 22.53443 | 32067 ft | 449 kts | 335° |
| 2026-05-08 18:13 | 41.15720 | 22.51017 | 32069 ft | 452 kts | 348° |
| 2026-05-08 18:14 | 41.21882 | 22.49625 | 32067 ft | 453 kts | 348° |
| 2026-05-08 18:14 | 41.28096 | 22.48210 | 32068 ft | 453 kts | 348° |
| 2026-05-08 18:15 | 41.34305 | 22.46779 | 32068 ft | 453 kts | 348° |
| 2026-05-08 18:15 | 41.40518 | 22.45352 | 32060 ft | 453 kts | 348° |
| 2026-05-08 18:16 | 41.46735 | 22.43928 | 32059 ft | 453 kts | 348° |
| 2026-05-08 18:16 | 41.52908 | 22.42500 | 32059 ft | 453 kts | 348° |
| 2026-05-08 18:17 | 41.59126 | 22.41060 | 32062 ft | 453 kts | 349° |
| 2026-05-08 18:17 | 41.65347 | 22.39623 | 32057 ft | 454 kts | 348° |
| 2026-05-08 18:18 | 41.71566 | 22.38177 | 32060 ft | 454 kts | 348° |
| 2026-05-08 18:18 | 41.77743 | 22.36743 | 32059 ft | 454 kts | 348° |
| 2026-05-08 18:19 | 41.83967 | 22.35296 | 32059 ft | 454 kts | 349° |
| 2026-05-08 18:19 | 41.90197 | 22.33842 | 32059 ft | 454 kts | 349° |
| 2026-05-08 18:20 | 41.96427 | 22.32385 | 32054 ft | 454 kts | 348° |
| 2026-05-08 18:20 | 42.02611 | 22.30928 | 32054 ft | 454 kts | 348° |
| 2026-05-08 18:21 | 42.08843 | 22.29470 | 32125 ft | 455 kts | 348° |
| 2026-05-08 18:21 | 42.11962 | 22.28741 | 32456 ft | 454 kts | 348° |
| 2026-05-08 18:21 | 42.15073 | 22.28014 | 32776 ft | 454 kts | 348° |
| 2026-05-08 18:22 | 42.18183 | 22.27282 | 33114 ft | 453 kts | 348° |
| 2026-05-08 18:22 | 42.21283 | 22.26550 | 33429 ft | 452 kts | 348° |
| 2026-05-08 18:22 | 42.24335 | 22.25830 | 33794 ft | 450 kts | 348° |
| 2026-05-08 18:22 | 42.27416 | 22.25099 | 34018 ft | 450 kts | 348° |
| 2026-05-08 18:23 | 42.33368 | 22.22975 | 34054 ft | 439 kts | 337° |
| 2026-05-08 18:23 | 42.39060 | 22.19997 | 34054 ft | 438 kts | 338° |
| 2026-05-08 18:24 | 42.44747 | 22.17035 | 34051 ft | 437 kts | 338° |
| 2026-05-08 18:24 | 42.50384 | 22.14099 | 34049 ft | 437 kts | 338° |
| 2026-05-08 18:25 | 42.56059 | 22.11126 | 34054 ft | 437 kts | 337° |
| 2026-05-08 18:25 | 42.61731 | 22.08153 | 34047 ft | 437 kts | 337° |
| 2026-05-08 18:26 | 42.67404 | 22.05168 | 34036 ft | 437 kts | 337° |
| 2026-05-08 18:26 | 42.73069 | 22.02180 | 34045 ft | 437 kts | 337° |
| 2026-05-08 18:27 | 42.76825 | 22.00203 | 34040 ft | 437 kts | 337° |
| 2026-05-08 18:27 | 42.84370 | 21.96213 | 34048 ft | 437 kts | 336° |
| 2026-05-08 18:28 | 42.90043 | 21.93201 | 34031 ft | 438 kts | 337° |
| 2026-05-08 18:28 | 42.95722 | 21.90187 | 34030 ft | 438 kts | 337° |
| 2026-05-08 18:29 | 43.01406 | 21.87165 | 34031 ft | 439 kts | 337° |
| 2026-05-08 18:29 | 43.07062 | 21.84151 | 34038 ft | 440 kts | 337° |
| 2026-05-08 18:30 | 43.12764 | 21.81103 | 34034 ft | 440 kts | 337° |
| 2026-05-08 18:30 | 43.18476 | 21.78050 | 34038 ft | 441 kts | 337° |
| 2026-05-08 18:31 | 43.24188 | 21.74988 | 34044 ft | 441 kts | 337° |
| 2026-05-08 18:31 | 43.29901 | 21.71913 | 34048 ft | 441 kts | 337° |
| 2026-05-08 18:32 | 43.35580 | 21.68856 | 34047 ft | 441 kts | 337° |
| 2026-05-08 18:32 | 43.41299 | 21.65774 | 34045 ft | 441 kts | 337° |
| 2026-05-08 18:33 | 43.47019 | 21.62692 | 34040 ft | 442 kts | 337° |
| 2026-05-08 18:33 | 43.52701 | 21.59613 | 34037 ft | 442 kts | 337° |
| 2026-05-08 18:34 | 43.58420 | 21.56504 | 34026 ft | 442 kts | 337° |
| 2026-05-08 18:34 | 43.64145 | 21.53389 | 34016 ft | 443 kts | 337° |
| 2026-05-08 18:35 | 43.69882 | 21.50258 | 34016 ft | 443 kts | 337° |
| 2026-05-08 18:35 | 43.75625 | 21.47124 | 34006 ft | 444 kts | 337° |
| 2026-05-08 18:36 | 43.81341 | 21.44001 | 34006 ft | 445 kts | 337° |
| 2026-05-08 18:36 | 43.87104 | 21.40841 | 34010 ft | 446 kts | 337° |
| 2026-05-08 18:37 | 43.92868 | 21.37668 | 34007 ft | 446 kts | 337° |
| 2026-05-08 18:37 | 43.97664 | 21.35024 | 34012 ft | 446 kts | 337° |
| 2026-05-08 18:38 | 44.04378 | 21.31319 | 34004 ft | 447 kts | 336° |
| 2026-05-08 18:38 | 44.10155 | 21.28112 | 34008 ft | 447 kts | 336° |
| 2026-05-08 18:39 | 44.14961 | 21.25457 | 34009 ft | 447 kts | 337° |
| 2026-05-08 18:39 | 44.20748 | 21.22251 | 34014 ft | 447 kts | 336° |
| 2026-05-08 18:40 | 44.27460 | 21.18514 | 34011 ft | 447 kts | 336° |
| 2026-05-08 18:40 | 44.32298 | 21.15815 | 34011 ft | 447 kts | 336° |
| 2026-05-08 18:41 | 44.38033 | 21.12605 | 34010 ft | 447 kts | 336° |
| 2026-05-08 18:41 | 44.43806 | 21.09374 | 34000 ft | 447 kts | 336° |
| 2026-05-08 18:42 | 44.49584 | 21.06138 | 33996 ft | 448 kts | 336° |
| 2026-05-08 18:42 | 44.55375 | 21.02890 | 33993 ft | 448 kts | 336° |
| 2026-05-08 18:43 | 44.61125 | 20.99651 | 33996 ft | 449 kts | 335° |
| 2026-05-08 18:43 | 44.66923 | 20.96373 | 33993 ft | 449 kts | 335° |
| 2026-05-08 18:44 | 44.72723 | 20.93091 | 33995 ft | 450 kts | 335° |
| 2026-05-08 18:44 | 44.78520 | 20.89803 | 34009 ft | 450 kts | 335° |
| 2026-05-08 18:45 | 44.84287 | 20.86521 | 34012 ft | 449 kts | 335° |
| 2026-05-08 18:45 | 44.90080 | 20.83218 | 34012 ft | 449 kts | 335° |
| 2026-05-08 18:46 | 44.95870 | 20.79912 | 34011 ft | 449 kts | 335° |
| 2026-05-08 18:46 | 45.01660 | 20.76607 | 34009 ft | 449 kts | 335° |
| 2026-05-08 18:47 | 45.07405 | 20.73316 | 34025 ft | 448 kts | 335° |
| 2026-05-08 18:47 | 45.13179 | 20.69998 | 34026 ft | 447 kts | 334° |
| 2026-05-08 18:48 | 45.18934 | 20.66683 | 34025 ft | 446 kts | 334° |
| 2026-05-08 18:48 | 45.24679 | 20.63363 | 34019 ft | 446 kts | 334° |
| 2026-05-08 18:49 | 45.30380 | 20.60064 | 34029 ft | 445 kts | 334° |
| 2026-05-08 18:49 | 45.36115 | 20.56746 | 34025 ft | 445 kts | 334° |
| 2026-05-08 18:50 | 45.41840 | 20.53421 | 34033 ft | 444 kts | 334° |
| 2026-05-08 18:50 | 45.47548 | 20.50099 | 34029 ft | 443 kts | 334° |
| 2026-05-08 18:51 | 45.53205 | 20.46791 | 34040 ft | 442 kts | 334° |
| 2026-05-08 18:51 | 45.58896 | 20.43462 | 34034 ft | 442 kts | 333° |
| 2026-05-08 18:52 | 45.64581 | 20.40121 | 34034 ft | 441 kts | 333° |
| 2026-05-08 18:52 | 45.70262 | 20.36786 | 34034 ft | 441 kts | 333° |
| 2026-05-08 18:53 | 45.75949 | 20.33445 | 34016 ft | 442 kts | 333° |
| 2026-05-08 18:53 | 45.81605 | 20.30112 | 34017 ft | 443 kts | 333° |
| 2026-05-08 18:54 | 45.87307 | 20.26749 | 34018 ft | 443 kts | 333° |
| 2026-05-08 18:54 | 45.93005 | 20.23369 | 34016 ft | 443 kts | 333° |
| 2026-05-08 18:55 | 46.01556 | 20.18278 | 34039 ft | 443 kts | 333° |
| 2026-05-08 18:56 | 46.07209 | 20.14905 | 34039 ft | 443 kts | 333° |
| 2026-05-08 18:56 | 46.12897 | 20.11511 | 34035 ft | 442 kts | 333° |
| 2026-05-08 18:57 | 46.18599 | 20.08188 | 34043 ft | 443 kts | 335° |
| 2026-05-08 18:57 | 46.24438 | 20.05296 | 34044 ft | 444 kts | 337° |
| 2026-05-08 18:58 | 46.30319 | 20.02569 | 34043 ft | 443 kts | 337° |
| 2026-05-08 18:58 | 46.36129 | 19.99796 | 34051 ft | 442 kts | 336° |
| 2026-05-08 18:59 | 46.41086 | 19.97357 | 34083 ft | 444 kts | 336° |
| 2026-05-08 18:59 | 46.44017 | 19.95897 | 34257 ft | 446 kts | 336° |
| 2026-05-08 18:59 | 46.46954 | 19.94433 | 34513 ft | 446 kts | 336° |
| 2026-05-08 18:59 | 46.49887 | 19.92977 | 34783 ft | 445 kts | 336° |
| 2026-05-08 19:00 | 46.52818 | 19.91527 | 35047 ft | 445 kts | 336° |
| 2026-05-08 19:00 | 46.55750 | 19.90077 | 35293 ft | 445 kts | 336° |
| 2026-05-08 19:00 | 46.58636 | 19.88651 | 35544 ft | 444 kts | 336° |
| 2026-05-08 19:00 | 46.61562 | 19.87207 | 35773 ft | 444 kts | 336° |
| 2026-05-08 19:01 | 46.64484 | 19.85762 | 35984 ft | 444 kts | 336° |
| 2026-05-08 19:01 | 46.70330 | 19.82852 | 36051 ft | 444 kts | 336° |
| 2026-05-08 19:02 | 46.76179 | 19.79936 | 36031 ft | 445 kts | 336° |
| 2026-05-08 19:02 | 46.82032 | 19.77010 | 36030 ft | 445 kts | 336° |
| 2026-05-08 19:03 | 46.87847 | 19.74094 | 36029 ft | 445 kts | 336° |
| 2026-05-08 19:03 | 46.93699 | 19.71156 | 36039 ft | 445 kts | 336° |
| 2026-05-08 19:04 | 46.99552 | 19.68216 | 36044 ft | 445 kts | 336° |
| 2026-05-08 19:04 | 47.05405 | 19.65263 | 36058 ft | 445 kts | 336° |
| 2026-05-08 19:05 | 47.11220 | 19.62314 | 36045 ft | 445 kts | 336° |
| 2026-05-08 19:05 | 47.17082 | 19.59346 | 36040 ft | 446 kts | 336° |
| 2026-05-08 19:06 | 47.22923 | 19.56380 | 36037 ft | 446 kts | 336° |
| 2026-05-08 19:06 | 47.28783 | 19.53398 | 36050 ft | 446 kts | 336° |
| 2026-05-08 19:07 | 47.34606 | 19.50430 | 36055 ft | 446 kts | 336° |
| 2026-05-08 19:07 | 47.40467 | 19.47429 | 36079 ft | 446 kts | 336° |
| 2026-05-08 19:08 | 47.46334 | 19.44420 | 36074 ft | 446 kts | 335° |
| 2026-05-08 19:08 | 47.52192 | 19.41413 | 36067 ft | 446 kts | 335° |
| 2026-05-08 19:09 | 47.58018 | 19.38418 | 36062 ft | 446 kts | 335° |
| 2026-05-08 19:09 | 47.63877 | 19.35397 | 36057 ft | 446 kts | 335° |
| 2026-05-08 19:10 | 47.69734 | 19.32360 | 36073 ft | 445 kts | 335° |
| 2026-05-08 19:10 | 47.75577 | 19.29324 | 36067 ft | 445 kts | 335° |
| 2026-05-08 19:11 | 47.81376 | 19.26309 | 36074 ft | 444 kts | 335° |
| 2026-05-08 19:11 | 47.87203 | 19.23270 | 36068 ft | 443 kts | 335° |
| 2026-05-08 19:12 | 47.93023 | 19.20229 | 36076 ft | 443 kts | 335° |
| 2026-05-08 19:12 | 47.98835 | 19.17190 | 36075 ft | 443 kts | 335° |
| 2026-05-08 19:13 | 48.04605 | 19.14153 | 36069 ft | 442 kts | 335° |
| 2026-05-08 19:13 | 48.10418 | 19.11114 | 36066 ft | 443 kts | 336° |
| 2026-05-08 19:14 | 48.16265 | 19.08189 | 36103 ft | 443 kts | 336° |
| 2026-05-08 19:14 | 48.22115 | 19.05287 | 36100 ft | 442 kts | 336° |
| 2026-05-08 19:15 | 48.27946 | 19.02364 | 36088 ft | 442 kts | 336° |
| 2026-05-08 19:15 | 48.33730 | 18.99439 | 36073 ft | 441 kts | 336° |
| 2026-05-08 19:16 | 48.39547 | 18.96482 | 36087 ft | 441 kts | 335° |
| 2026-05-08 19:16 | 48.45360 | 18.93526 | 36089 ft | 441 kts | 335° |
| 2026-05-08 19:17 | 48.51161 | 18.90575 | 36106 ft | 440 kts | 335° |
| 2026-05-08 19:17 | 48.56925 | 18.87629 | 36095 ft | 440 kts | 335° |
| 2026-05-08 19:18 | 48.62721 | 18.84654 | 36098 ft | 440 kts | 335° |
| 2026-05-08 19:18 | 48.68524 | 18.81680 | 36113 ft | 440 kts | 335° |
| 2026-05-08 19:19 | 48.74323 | 18.78708 | 36109 ft | 440 kts | 335° |
| 2026-05-08 19:19 | 48.80112 | 18.75724 | 36114 ft | 439 kts | 335° |
| 2026-05-08 19:20 | 48.85859 | 18.72754 | 36108 ft | 439 kts | 335° |
| 2026-05-08 19:20 | 48.91643 | 18.69756 | 36145 ft | 439 kts | 335° |
| 2026-05-08 19:21 | 48.97425 | 18.66758 | 36132 ft | 439 kts | 335° |
| 2026-05-08 19:21 | 49.03197 | 18.63743 | 36133 ft | 438 kts | 335° |
| 2026-05-08 19:22 | 49.08920 | 18.60746 | 36132 ft | 438 kts | 335° |
| 2026-05-08 19:22 | 49.14691 | 18.57733 | 36140 ft | 438 kts | 335° |
| 2026-05-08 19:23 | 49.20451 | 18.54716 | 36147 ft | 438 kts | 335° |
| 2026-05-08 19:23 | 49.26212 | 18.51688 | 36150 ft | 437 kts | 335° |
| 2026-05-08 19:24 | 49.31928 | 18.48677 | 36157 ft | 438 kts | 335° |
| 2026-05-08 19:24 | 49.37692 | 18.45625 | 36135 ft | 438 kts | 335° |
| 2026-05-08 19:25 | 49.43235 | 18.41939 | 36152 ft | 433 kts | 328° |
| 2026-05-08 19:25 | 49.48681 | 18.37969 | 36157 ft | 433 kts | 328° |
| 2026-05-08 19:26 | 49.54086 | 18.34015 | 36166 ft | 433 kts | 328° |
| 2026-05-08 19:26 | 49.59529 | 18.30030 | 36169 ft | 433 kts | 328° |
| 2026-05-08 19:27 | 49.64969 | 18.26035 | 36183 ft | 433 kts | 328° |
| 2026-05-08 19:27 | 49.70405 | 18.22023 | 36182 ft | 433 kts | 328° |
| 2026-05-08 19:28 | 49.75812 | 18.18046 | 36172 ft | 433 kts | 329° |
| 2026-05-08 19:28 | 49.81256 | 18.14040 | 36170 ft | 433 kts | 328° |
| 2026-05-08 19:29 | 49.86694 | 18.10012 | 36163 ft | 433 kts | 328° |
| 2026-05-08 19:29 | 49.92127 | 18.05968 | 36188 ft | 433 kts | 329° |
| 2026-05-08 19:30 | 49.97743 | 18.02575 | 36171 ft | 437 kts | 334° |
| 2026-05-08 19:30 | 50.03452 | 17.99315 | 36165 ft | 437 kts | 334° |
| 2026-05-08 19:31 | 50.09165 | 17.96064 | 36169 ft | 437 kts | 334° |
| 2026-05-08 19:31 | 50.14877 | 17.92811 | 36164 ft | 437 kts | 334° |
| 2026-05-08 19:32 | 50.20548 | 17.89568 | 36177 ft | 437 kts | 335° |
| 2026-05-08 19:32 | 50.26260 | 17.86284 | 36168 ft | 438 kts | 335° |
| 2026-05-08 19:33 | 50.31976 | 17.82993 | 36167 ft | 438 kts | 335° |
| 2026-05-08 19:33 | 50.37694 | 17.79698 | 36176 ft | 438 kts | 335° |
| 2026-05-08 19:34 | 50.43377 | 17.76415 | 36167 ft | 439 kts | 335° |
| 2026-05-08 19:34 | 50.49104 | 17.73087 | 36167 ft | 439 kts | 336° |
| 2026-05-08 19:35 | 50.54840 | 17.69747 | 36162 ft | 440 kts | 336° |
| 2026-05-08 19:35 | 50.60579 | 17.66398 | 36161 ft | 440 kts | 336° |
| 2026-05-08 19:36 | 50.66324 | 17.63039 | 36161 ft | 440 kts | 336° |
| 2026-05-08 19:36 | 50.72066 | 17.59660 | 36182 ft | 440 kts | 336° |
| 2026-05-08 19:37 | 50.77813 | 17.56285 | 36188 ft | 441 kts | 336° |
| 2026-05-08 19:37 | 50.83521 | 17.52924 | 36182 ft | 441 kts | 336° |
| 2026-05-08 19:38 | 50.89269 | 17.49538 | 36185 ft | 441 kts | 336° |
| 2026-05-08 19:38 | 50.95013 | 17.46143 | 36183 ft | 441 kts | 336° |
| 2026-05-08 19:39 | 51.00755 | 17.42732 | 36190 ft | 441 kts | 336° |
| 2026-05-08 19:39 | 51.06454 | 17.39330 | 36192 ft | 440 kts | 336° |
| 2026-05-08 19:40 | 51.12189 | 17.35906 | 36196 ft | 440 kts | 336° |
| 2026-05-08 19:40 | 51.17922 | 17.32475 | 36207 ft | 440 kts | 336° |
| 2026-05-08 19:41 | 51.23650 | 17.29039 | 36201 ft | 440 kts | 336° |
| 2026-05-08 19:41 | 51.29372 | 17.25597 | 36209 ft | 439 kts | 335° |
| 2026-05-08 19:42 | 51.35085 | 17.22149 | 36203 ft | 439 kts | 335° |
| 2026-05-08 19:42 | 51.40753 | 17.18716 | 36204 ft | 438 kts | 335° |
| 2026-05-08 19:43 | 51.46455 | 17.15251 | 36201 ft | 438 kts | 335° |
| 2026-05-08 19:43 | 51.52159 | 17.11784 | 36218 ft | 438 kts | 335° |
| 2026-05-08 19:44 | 51.57856 | 17.08309 | 36220 ft | 438 kts | 336° |
| 2026-05-08 19:44 | 51.63549 | 17.04836 | 36203 ft | 437 kts | 335° |
| 2026-05-08 19:45 | 51.69200 | 17.01378 | 36201 ft | 437 kts | 335° |
| 2026-05-08 19:45 | 51.74886 | 16.97879 | 36201 ft | 437 kts | 335° |
| 2026-05-08 19:46 | 51.80569 | 16.94380 | 36213 ft | 437 kts | 335° |
| 2026-05-08 19:46 | 51.89092 | 16.89099 | 36205 ft | 437 kts | 335° |
| 2026-05-08 19:47 | 51.94739 | 16.85594 | 36205 ft | 437 kts | 335° |
| 2026-05-08 19:47 | 52.00421 | 16.82069 | 36210 ft | 437 kts | 335° |
| 2026-05-08 19:48 | 52.06101 | 16.78514 | 36219 ft | 437 kts | 336° |
| 2026-05-08 19:48 | 52.11778 | 16.74958 | 36213 ft | 437 kts | 336° |
| 2026-05-08 19:49 | 52.17453 | 16.71404 | 36209 ft | 437 kts | 336° |
| 2026-05-08 19:49 | 52.23130 | 16.67836 | 36205 ft | 437 kts | 336° |
| 2026-05-08 19:50 | 52.28763 | 16.64279 | 36204 ft | 437 kts | 335° |
| 2026-05-08 19:50 | 52.34428 | 16.60682 | 36201 ft | 437 kts | 335° |
| 2026-05-08 19:51 | 52.40092 | 16.57083 | 36206 ft | 437 kts | 336° |
| 2026-05-08 19:51 | 52.45760 | 16.53484 | 36210 ft | 437 kts | 336° |
| 2026-05-08 19:52 | 52.51426 | 16.49877 | 36202 ft | 437 kts | 335° |
| 2026-05-08 19:52 | 52.57050 | 16.46275 | 36201 ft | 437 kts | 335° |
| 2026-05-08 19:53 | 52.62709 | 16.42642 | 36212 ft | 437 kts | 335° |
| 2026-05-08 19:53 | 52.68367 | 16.39006 | 36207 ft | 436 kts | 335° |
| 2026-05-08 19:54 | 52.74022 | 16.35362 | 36209 ft | 436 kts | 335° |
| 2026-05-08 19:54 | 52.79671 | 16.31704 | 36205 ft | 436 kts | 335° |
| 2026-05-08 19:55 | 52.85286 | 16.28057 | 36208 ft | 436 kts | 335° |
| 2026-05-08 19:55 | 52.90938 | 16.24386 | 36225 ft | 436 kts | 336° |
| 2026-05-08 19:56 | 52.96588 | 16.20702 | 36228 ft | 436 kts | 335° |
| 2026-05-08 19:56 | 53.02232 | 16.17006 | 36219 ft | 436 kts | 335° |
| 2026-05-08 19:57 | 53.07878 | 16.13305 | 36222 ft | 436 kts | 335° |
| 2026-05-08 19:57 | 53.13488 | 16.09624 | 36223 ft | 436 kts | 335° |
| 2026-05-08 19:58 | 53.19128 | 16.05908 | 36235 ft | 436 kts | 335° |
| 2026-05-08 19:58 | 53.24765 | 16.02173 | 36232 ft | 436 kts | 335° |
| 2026-05-08 19:59 | 53.30392 | 15.98420 | 36225 ft | 436 kts | 335° |
| 2026-05-08 19:59 | 53.36029 | 15.94665 | 36223 ft | 436 kts | 335° |
| 2026-05-08 20:00 | 53.41627 | 15.90934 | 36226 ft | 436 kts | 335° |
| 2026-05-08 20:00 | 53.47262 | 15.87171 | 36238 ft | 436 kts | 335° |
| 2026-05-08 20:01 | 53.52895 | 15.83390 | 36237 ft | 436 kts | 335° |
| 2026-05-08 20:01 | 53.58527 | 15.79604 | 36235 ft | 436 kts | 335° |
| 2026-05-08 20:02 | 53.64159 | 15.75800 | 36242 ft | 436 kts | 335° |
| 2026-05-08 20:02 | 53.69790 | 15.71989 | 36240 ft | 436 kts | 335° |
| 2026-05-08 20:03 | 53.75382 | 15.68190 | 36250 ft | 436 kts | 335° |
| 2026-05-08 20:03 | 53.81015 | 15.64357 | 36244 ft | 437 kts | 335° |
| 2026-05-08 20:04 | 53.86651 | 15.60518 | 36246 ft | 437 kts | 335° |
| 2026-05-08 20:04 | 53.92284 | 15.56656 | 36245 ft | 437 kts | 335° |
| 2026-05-08 20:05 | 53.97881 | 15.52806 | 36250 ft | 437 kts | 335° |
| 2026-05-08 20:05 | 54.03513 | 15.48924 | 36255 ft | 437 kts | 335° |
| 2026-05-08 20:06 | 54.09151 | 15.45031 | 36252 ft | 437 kts | 335° |
| 2026-05-08 20:06 | 54.14789 | 15.41126 | 36251 ft | 438 kts | 335° |
| 2026-05-08 20:07 | 54.20396 | 15.37233 | 36108 ft | 439 kts | 335° |
| 2026-05-08 20:07 | 54.23219 | 15.35274 | 35740 ft | 437 kts | 335° |
| 2026-05-08 20:07 | 54.26035 | 15.33320 | 35373 ft | 436 kts | 335° |
| 2026-05-08 20:08 | 54.28838 | 15.31364 | 35021 ft | 435 kts | 335° |
| 2026-05-08 20:08 | 54.31638 | 15.29399 | 34684 ft | 435 kts | 335° |
| 2026-05-08 20:08 | 54.34440 | 15.27426 | 34346 ft | 435 kts | 335° |
| 2026-05-08 20:08 | 54.37238 | 15.25457 | 33944 ft | 435 kts | 336° |
| 2026-05-08 20:09 | 54.40035 | 15.23490 | 33530 ft | 434 kts | 336° |
| 2026-05-08 20:09 | 54.42819 | 15.21531 | 33122 ft | 431 kts | 336° |
| 2026-05-08 20:09 | 54.45550 | 15.19608 | 32726 ft | 428 kts | 336° |
| 2026-05-08 20:09 | 54.48295 | 15.17675 | 32332 ft | 425 kts | 336° |
| 2026-05-08 20:10 | 54.51018 | 15.15754 | 31940 ft | 422 kts | 335° |
| 2026-05-08 20:10 | 54.53720 | 15.13844 | 31560 ft | 419 kts | 335° |
| 2026-05-08 20:10 | 54.56404 | 15.11944 | 31182 ft | 416 kts | 335° |
| 2026-05-08 20:10 | 54.59070 | 15.10053 | 30815 ft | 413 kts | 336° |
| 2026-05-08 20:11 | 54.61719 | 15.08171 | 30404 ft | 410 kts | 336° |
| 2026-05-08 20:11 | 54.64345 | 15.06301 | 29931 ft | 406 kts | 336° |
| 2026-05-08 20:11 | 54.66946 | 15.04448 | 29372 ft | 402 kts | 336° |
| 2026-05-08 20:11 | 54.69526 | 15.02608 | 28812 ft | 399 kts | 336° |
| 2026-05-08 20:12 | 54.72050 | 15.00805 | 28310 ft | 397 kts | 335° |
| 2026-05-08 20:12 | 54.74594 | 14.98985 | 27846 ft | 395 kts | 335° |
| 2026-05-08 20:12 | 54.77125 | 14.97170 | 27456 ft | 392 kts | 335° |
| 2026-05-08 20:12 | 54.79640 | 14.95358 | 27062 ft | 391 kts | 335° |
| 2026-05-08 20:13 | 54.82140 | 14.93552 | 26670 ft | 389 kts | 336° |
| 2026-05-08 20:13 | 54.84634 | 14.91755 | 26286 ft | 387 kts | 335° |
| 2026-05-08 20:13 | 54.87116 | 14.89971 | 25916 ft | 385 kts | 336° |
| 2026-05-08 20:13 | 54.89585 | 14.88197 | 25533 ft | 383 kts | 335° |
| 2026-05-08 20:14 | 54.92041 | 14.86428 | 25162 ft | 381 kts | 336° |
| 2026-05-08 20:14 | 54.94457 | 14.84684 | 24809 ft | 380 kts | 335° |
| 2026-05-08 20:14 | 54.96894 | 14.82918 | 24449 ft | 379 kts | 336° |
| 2026-05-08 20:14 | 54.99324 | 14.81152 | 24091 ft | 378 kts | 335° |
| 2026-05-08 20:15 | 55.01741 | 14.79390 | 23714 ft | 376 kts | 335° |
| 2026-05-08 20:15 | 55.04145 | 14.77628 | 23293 ft | 373 kts | 334° |
| 2026-05-08 20:15 | 55.06404 | 14.75461 | 22868 ft | 370 kts | 323° |
| 2026-05-08 20:15 | 55.08378 | 14.72631 | 22463 ft | 367 kts | 314° |
| 2026-05-08 20:16 | 55.10150 | 14.69434 | 22060 ft | 365 kts | 313° |
| 2026-05-08 20:16 | 55.11907 | 14.66261 | 21670 ft | 363 kts | 313° |
| 2026-05-08 20:16 | 55.13636 | 14.63145 | 21281 ft | 361 kts | 313° |
| 2026-05-08 20:16 | 55.15376 | 14.60006 | 20926 ft | 357 kts | 313° |
| 2026-05-08 20:17 | 55.17089 | 14.56914 | 20550 ft | 352 kts | 313° |
| 2026-05-08 20:17 | 55.18786 | 14.53848 | 20129 ft | 349 kts | 313° |
| 2026-05-08 20:17 | 55.20469 | 14.50803 | 19704 ft | 347 kts | 313° |
| 2026-05-08 20:17 | 55.22139 | 14.47773 | 19284 ft | 345 kts | 313° |
| 2026-05-08 20:18 | 55.23796 | 14.44760 | 18858 ft | 342 kts | 314° |
| 2026-05-08 20:18 | 55.25444 | 14.41766 | 18436 ft | 340 kts | 314° |
| 2026-05-08 20:18 | 55.27080 | 14.38795 | 18005 ft | 337 kts | 314° |
| 2026-05-08 20:18 | 55.28677 | 14.35891 | 17607 ft | 333 kts | 314° |
| 2026-05-08 20:19 | 55.30276 | 14.32976 | 17203 ft | 330 kts | 314° |
| 2026-05-08 20:19 | 55.31860 | 14.30086 | 16815 ft | 327 kts | 314° |
| 2026-05-08 20:19 | 55.33431 | 14.27212 | 16429 ft | 325 kts | 314° |
| 2026-05-08 20:19 | 55.34986 | 14.24361 | 16042 ft | 322 kts | 314° |
| 2026-05-08 20:20 | 55.36531 | 14.21522 | 15659 ft | 320 kts | 314° |
| 2026-05-08 20:20 | 55.38066 | 14.18700 | 15279 ft | 318 kts | 314° |
| 2026-05-08 20:20 | 55.39590 | 14.15898 | 14903 ft | 316 kts | 314° |
| 2026-05-08 20:20 | 55.41087 | 14.13141 | 14529 ft | 315 kts | 314° |
| 2026-05-08 20:21 | 55.42597 | 14.10357 | 14158 ft | 314 kts | 314° |
| 2026-05-08 20:21 | 55.44102 | 14.07583 | 13740 ft | 312 kts | 314° |
| 2026-05-08 20:21 | 55.45596 | 14.04824 | 13371 ft | 310 kts | 314° |
| 2026-05-08 20:21 | 55.47078 | 14.02088 | 12993 ft | 307 kts | 314° |
| 2026-05-08 20:22 | 55.48550 | 13.99372 | 12611 ft | 306 kts | 316° |
| 2026-05-08 20:22 | 55.50014 | 13.96664 | 12248 ft | 304 kts | 316° |
| 2026-05-08 20:22 | 55.51469 | 13.93967 | 11875 ft | 302 kts | 315° |
| 2026-05-08 20:22 | 55.52426 | 13.92187 | 11624 ft | 301 kts | 315° |
| 2026-05-08 20:23 | 55.54345 | 13.88616 | 11124 ft | 299 kts | 315° |
| 2026-05-08 20:23 | 55.55751 | 13.85998 | 10753 ft | 297 kts | 315° |
| 2026-05-08 20:23 | 55.57165 | 13.83362 | 10526 ft | 292 kts | 315° |
| 2026-05-08 20:23 | 55.58560 | 13.80759 | 10432 ft | 292 kts | 315° |
| 2026-05-08 20:24 | 55.59956 | 13.78147 | 10305 ft | 292 kts | 315° |
| 2026-05-08 20:24 | 55.61360 | 13.75522 | 9820 ft | 296 kts | 315° |
| 2026-05-08 20:24 | 55.62779 | 13.72863 | 9328 ft | 298 kts | 315° |
| 2026-05-08 20:24 | 55.64201 | 13.70194 | 8826 ft | 298 kts | 315° |
| 2026-05-08 20:25 | 55.65626 | 13.67516 | 8369 ft | 299 kts | 315° |
| 2026-05-08 20:25 | 55.67022 | 13.64891 | 7895 ft | 292 kts | 315° |
| 2026-05-08 20:25 | 55.68392 | 13.62318 | 7437 ft | 281 kts | 315° |
| 2026-05-08 20:25 | 55.69700 | 13.59854 | 6999 ft | 268 kts | 315° |
| 2026-05-08 20:26 | 55.70965 | 13.57465 | 6578 ft | 266 kts | 315° |
| 2026-05-08 20:26 | 55.72228 | 13.55077 | 6282 ft | 261 kts | 315° |
| 2026-05-08 20:26 | 55.73439 | 13.52787 | 6217 ft | 250 kts | 315° |
| 2026-05-08 20:26 | 55.74575 | 13.50476 | 6146 ft | 248 kts | 306° |
| 2026-05-08 20:27 | 55.75377 | 13.47770 | 5949 ft | 249 kts | 291° |
| 2026-05-08 20:27 | 55.75822 | 13.44816 | 5290 ft | 253 kts | 283° |
| 2026-05-08 20:27 | 55.76049 | 13.41752 | 4583 ft | 250 kts | 265° |
| 2026-05-08 20:27 | 55.75633 | 13.38840 | 4224 ft | 238 kts | 242° |
| 2026-05-08 20:28 | 55.74710 | 13.36494 | 4106 ft | 229 kts | 222° |
| 2026-05-08 20:28 | 55.73442 | 13.34858 | 3923 ft | 224 kts | 202° |
| 2026-05-08 20:28 | 55.71980 | 13.34064 | 3684 ft | 218 kts | 183° |
| 2026-05-08 20:28 | 55.70493 | 13.34126 | 3418 ft | 213 kts | 169° |
| 2026-05-08 20:29 | 55.69050 | 13.34427 | 3133 ft | 202 kts | 168° |
| 2026-05-08 20:29 | 55.67695 | 13.34708 | 2861 ft | 190 kts | 168° |
| 2026-05-08 20:29 | 55.66456 | 13.34964 | 2603 ft | 177 kts | 167° |
| 2026-05-08 20:29 | 55.65294 | 13.35202 | 2399 ft | 157 kts | 166° |
| 2026-05-08 20:30 | 55.64258 | 13.35416 | 2173 ft | 145 kts | 165° |
| 2026-05-08 20:30 | 55.63271 | 13.35622 | 1969 ft | 141 kts | 165° |
| 2026-05-08 20:30 | 55.62304 | 13.35824 | 1774 ft | 139 kts | 164° |
| 2026-05-08 20:30 | 55.61348 | 13.36034 | 1572 ft | 138 kts | 165° |
| 2026-05-08 20:31 | 55.60394 | 13.36228 | 1394 ft | 138 kts | 165° |
| 2026-05-08 20:31 | 55.59442 | 13.36425 | 1193 ft | 138 kts | 166° |
| 2026-05-08 20:31 | 55.58494 | 13.36617 | 1000 ft | 137 kts | 166° |
| 2026-05-08 20:31 | 55.57559 | 13.36810 | 824 ft | 138 kts | 167° |
| 2026-05-08 20:32 | 55.56603 | 13.37005 | 662 ft | 139 kts | 167° |
| 2026-05-08 20:32 | 55.55643 | 13.37200 | 446 ft | 139 kts | 167° |
| 2026-05-08 20:32 | 55.54684 | 13.37399 | 249 ft | 138 kts | 168° |
| 2026-05-08 20:32 | 55.53839 | 13.37579 | 240 ft | 97 kts | 173° |
| 2026-05-08 20:33 | 55.53341 | 13.37683 | 239 ft | 55 kts | 173° |
| 2026-05-08 20:33 | 55.53054 | 13.37744 | 241 ft | 20 kts | 172° |
| 2026-05-08 20:33 | 55.52993 | 13.37733 | 240 ft | 7 kts | 226° |
| 2026-05-08 20:33 | 55.52978 | 13.37645 | 240 ft | 11 kts | 263° |
| 2026-05-08 20:34 | 55.52969 | 13.37487 | 232 ft | 12 kts | 277° |
| 2026-05-08 20:34 | 55.53014 | 13.37458 | 232 ft | 8 kts | 352° |
| 2026-05-08 20:34 | 55.53249 | 13.37407 | 232 ft | 25 kts | 353° |
| 2026-05-08 20:35 | 55.53418 | 13.37375 | 231 ft | 24 kts | 353° |
| 2026-05-08 20:35 | 55.53580 | 13.37339 | 233 ft | 23 kts | 353° |
| 2026-05-08 20:35 | 55.53734 | 13.37304 | 231 ft | 22 kts | 353° |
| 2026-05-08 20:35 | 55.53887 | 13.37276 | 232 ft | 22 kts | 353° |
| 2026-05-08 20:36 | 55.54034 | 13.37244 | 233 ft | 21 kts | 353° |
| 2026-05-08 20:36 | 55.54160 | 13.37217 | 232 ft | 11 kts | 351° |
| 2026-05-08 20:36 | 55.54195 | 13.37125 | 231 ft | 9 kts | 261° |
| 2026-05-08 20:36 | 55.54179 | 13.37021 | 231 ft | 8 kts | 264° |
| 2026-05-08 20:37 | 55.54170 | 13.36903 | 231 ft | 10 kts | 263° |
| 2026-05-08 20:37 | 55.54167 | 13.36846 | 231 ft | 1 kts | 263° |
| 2026-05-08 20:37 | 55.54159 | 13.36769 | 231 ft | 9 kts | 248° |
| 2026-05-08 20:37 | 55.54119 | 13.36761 | 231 ft | 5 kts | 175° |
| 2026-05-08 20:38 | 55.54106 | 13.36763 | 231 ft | 1 kts | 174° |
| 2026-05-08 20:38 | 55.54100 | 13.36764 | 231 ft | 0 kts | 173° |
| 2026-05-08 20:38 | 55.54098 | 13.36765 | 231 ft | 1 kts | 173° |
| 2026-05-08 20:38 | 55.54097 | 13.36765 | 231 ft | 0 kts | 173° |